Time;durP1;ratioP1;P1;durP2;ratioP2;P2;SDS_P1;SDS_P2;PMS_P1;PMS_P2;Temp;Humidity;BMP_temperature;BMP_pressure;BME280_temperature;BME280_humidity;BME280_pressure;Samples;Min_cycle;Max_cycle;Signal;HPM_P1;HPM_P2
2023/03/24 00:01:07;;;;;;;4.57;3.47;;;;;;;12.16;100.00;99433.19;4988861;28;20070;-80
2023/03/24 00:03:35;;;;;;;5.55;3.33;;;;;;;12.19;100.00;99417.06;4983763;28;20054;-80
2023/03/24 00:06:03;;;;;;;4.75;3.40;;;;;;;12.23;99.83;99423.53;4984457;28;20141;-78
2023/03/24 00:08:34;;;;;;;5.20;3.17;;;;;;;12.16;100.00;99423.50;4984432;28;20046;-79
2023/03/24 00:11:05;;;;;;;4.38;3.53;;;;;;;12.20;100.00;99422.13;4984767;28;20058;-80
2023/03/24 00:13:37;;;;;;;4.32;3.08;;;;;;;12.22;100.00;99414.88;4982302;28;20051;-79
2023/03/24 00:16:04;;;;;;;12.82;3.80;;;;;;;12.26;99.96;99413.47;4980086;28;20043;-78
2023/03/24 00:18:31;;;;;;;4.10;2.97;;;;;;;12.26;99.53;99408.22;4982318;28;20051;-79
2023/03/24 00:20:59;;;;;;;4.13;3.05;;;;;;;12.27;99.63;99401.16;4981988;28;20078;-80
2023/03/24 00:23:26;;;;;;;5.00;3.00;;;;;;;12.32;99.37;99388.25;4983472;28;20074;-81
2023/03/24 00:26:02;;;;;;;6.13;3.63;;;;;;;12.32;99.33;99385.63;4981756;28;20055;-80
2023/03/24 00:28:30;;;;;;;4.75;3.67;;;;;;;12.32;99.23;99380.38;4981988;28;20047;-81
2023/03/24 00:31:04;;;;;;;7.38;3.60;;;;;;;12.41;98.91;99373.94;4986233;28;20053;-81
2023/03/24 00:33:39;;;;;;;4.55;3.45;;;;;;;12.44;98.49;99370.13;4989376;28;20070;-82
2023/03/24 00:36:12;;;;;;;6.22;3.17;;;;;;;12.36;98.50;99354.56;4989036;28;20055;-80
2023/03/24 00:38:40;;;;;;;5.30;3.40;;;;;;;12.42;98.39;99372.13;4988509;28;20081;-82
2023/03/24 00:41:10;;;;;;;4.68;3.60;;;;;;;12.38;98.13;99363.03;4986742;28;20074;-82
2023/03/24 00:43:37;;;;;;;5.53;4.03;;;;;;;12.32;98.51;99356.78;4987360;28;20095;-82
2023/03/24 00:46:27;;;;;;;7.20;4.03;;;;;;;12.35;98.83;99347.69;4986394;28;20043;-83
2023/03/24 00:48:56;;;;;;;5.53;3.80;;;;;;;12.39;98.85;99359.41;4979628;28;20050;-82
2023/03/24 00:51:24;;;;;;;7.63;4.35;;;;;;;12.44;98.84;99362.25;4985981;28;20051;-82
2023/03/24 00:53:58;;;;;;;5.95;4.13;;;;;;;12.44;98.64;99357.81;4985954;28;20110;-83
2023/03/24 00:56:29;;;;;;;7.32;4.68;;;;;;;12.41;99.02;99352.16;4988932;28;20077;-83
2023/03/24 00:59:00;;;;;;;5.80;4.53;;;;;;;12.45;98.89;99342.88;4987914;28;20043;-83
2023/03/24 01:01:31;;;;;;;7.38;4.50;;;;;;;12.46;98.86;99349.75;4986467;28;20062;-83
2023/03/24 01:03:59;;;;;;;5.72;3.92;;;;;;;12.47;98.82;99346.91;4986830;28;20065;-82
2023/03/24 01:06:26;;;;;;;5.30;4.05;;;;;;;12.40;98.71;99342.66;4986930;28;20062;-83
2023/03/24 01:08:53;;;;;;;6.60;4.50;;;;;;;12.45;98.59;99340.25;4987902;28;20111;-82
2023/03/24 01:11:23;;;;;;;5.28;4.10;;;;;;;12.49;98.58;99349.34;4987512;28;20051;-82
2023/03/24 01:13:55;;;;;;;7.00;4.38;;;;;;;12.36;98.78;99329.13;4979528;28;20074;-83
2023/03/24 01:16:24;;;;;;;5.07;3.90;;;;;;;12.43;98.65;99339.66;4979570;28;20042;-81
2023/03/24 01:18:51;;;;;;;6.65;4.40;;;;;;;12.44;98.72;99343.88;4986257;28;20109;-81
2023/03/24 01:21:24;;;;;;;8.15;4.40;;;;;;;12.44;98.74;99346.50;4986075;28;20296;-82
2023/03/24 01:23:51;;;;;;;6.18;4.38;;;;;;;12.53;98.98;99346.13;4986146;28;20054;-81
2023/03/24 01:26:18;;;;;;;5.30;4.30;;;;;;;12.52;98.50;99331.41;4985647;28;20082;-83
2023/03/24 01:28:45;;;;;;;6.13;4.63;;;;;;;12.57;98.24;99336.03;4988991;28;20111;-81
2023/03/24 01:31:24;;;;;;;5.15;4.30;;;;;;;12.60;98.08;99333.03;4973549;28;20458;-82
2023/03/24 01:33:54;;;;;;;5.68;4.15;;;;;;;12.61;97.75;99321.50;4982881;28;20065;-82
2023/03/24 01:36:27;;;;;;;5.57;4.35;;;;;;;12.61;97.56;99301.31;4989691;28;20128;-83
2023/03/24 01:39:19;;;;;;;;;;;;;;;12.73;97.54;99319.91;4989147;28;20042;-82
2023/03/24 01:42:09;;;;;;;5.85;4.35;;;;;;;12.56;98.34;99295.88;4980124;28;19928;-81
2023/03/24 01:44:52;;;;;;;6.05;4.50;;;;;;;12.67;98.71;99302.34;4988412;28;20057;-82
2023/03/24 01:47:32;;;;;;;5.63;4.50;;;;;;;12.59;99.10;99292.03;4987951;28;20517;-81
2023/03/24 01:50:03;;;;;;;6.18;4.00;;;;;;;12.66;99.33;99298.09;4988611;28;20051;-82
2023/03/24 01:52:36;;;;;;;6.53;4.07;;;;;;;12.61;99.25;99282.16;4989393;28;20050;-82
2023/03/24 01:55:07;;;;;;;;;;;;;;;12.67;99.32;99288.41;4989142;28;20047;-79
2023/03/24 01:57:40;;;;;;;6.28;4.93;;;;;;;12.69;99.01;99276.72;4988939;28;19921;-80
2023/03/24 02:00:17;;;;;;;6.43;4.65;;;;;;;12.74;98.92;99271.66;4991144;28;20134;-81
2023/03/24 02:02:53;;;;;;;6.80;4.90;;;;;;;12.61;98.49;99232.28;4993122;28;20065;-82
2023/03/24 02:05:29;;;;;;;6.97;4.90;;;;;;;12.64;98.37;99234.50;4992645;28;20154;-81
2023/03/24 02:08:05;;;;;;;7.43;5.13;;;;;;;12.80;98.15;99247.19;4984897;28;20081;-80
2023/03/24 02:10:41;;;;;;;7.10;4.50;;;;;;;12.78;97.72;99241.34;4989951;28;20057;-81
2023/03/24 02:13:13;;;;;;;7.15;4.57;;;;;;;12.71;97.78;99209.06;4985937;28;20063;-81
2023/03/24 02:15:47;;;;;;;8.77;4.60;;;;;;;12.75;97.62;99220.78;4985329;28;20175;-81
2023/03/24 02:18:24;;;;;;;5.22;4.45;;;;;;;12.74;97.43;99203.41;4985721;28;20054;-81
2023/03/24 02:21:29;;;;;;;8.25;4.97;;;;;;;12.88;97.39;99226.00;4983543;28;20122;-83
2023/03/24 02:24:32;;;;;;;7.40;4.50;;;;;;;12.97;96.89;99205.56;4984652;28;20059;-82
2023/03/24 02:27:08;;;;;;;8.05;4.88;;;;;;;12.91;96.72;99188.81;4981558;28;20086;-81
2023/03/24 02:30:14;;;;;;;6.00;4.60;;;;;;;13.00;96.36;99197.28;4989196;28;20053;-78
2023/03/24 02:33:12;;;;;;;6.65;4.82;;;;;;;13.02;96.39;99204.97;4989743;28;20132;-81
2023/03/24 02:36:00;;;;;;;8.95;5.20;;;;;;;12.94;96.23;99206.78;4991291;28;20070;-81
2023/03/24 02:39:23;;;;;;;7.13;4.70;;;;;;;12.93;95.94;99173.66;4991334;28;20047;-83
2023/03/24 02:45:36;;;;;;;7.22;4.82;;;;;;;13.15;95.52;99223.31;4946001;29;20303;-82
2023/03/24 02:51:32;;;;;;;8.40;4.80;;;;;;;13.23;94.50;99199.47;4985982;28;20086;-80
2023/03/24 02:54:08;;;;;;;8.07;4.78;;;;;;;13.38;93.93;99202.63;4981839;28;20055;-81
2023/03/24 02:56:40;;;;;;;6.13;4.85;;;;;;;13.28;93.92;99186.50;4978938;28;20475;-81
2023/03/24 02:59:16;;;;;;;5.57;4.70;;;;;;;13.36;93.94;99209.09;4977218;28;20069;-80
2023/03/24 03:01:53;;;;;;;7.22;4.88;;;;;;;13.34;94.17;99216.38;4980064;28;20057;-80
2023/03/24 03:04:35;;;;;;;7.30;5.18;;;;;;;13.32;94.39;99213.16;4990679;28;20363;-80
2023/03/24 03:07:25;;;;;;;6.15;4.80;;;;;;;13.28;94.60;99208.31;4990361;28;20089;-82
2023/03/24 03:10:03;;;;;;;6.35;4.80;;;;;;;13.22;95.00;99216.25;4992255;28;20054;-82
2023/03/24 03:15:35;;;;;;;6.90;4.57;;;;;;;13.24;94.87;99222.06;4988816;28;20061;-81
2023/03/24 03:18:09;;;;;;;6.55;4.82;;;;;;;13.24;95.26;99211.56;4992538;28;20082;-81
2023/03/24 03:20:41;;;;;;;6.53;4.70;;;;;;;13.04;95.58;99179.31;4988273;28;20051;-80
2023/03/24 03:23:16;;;;;;;6.13;4.28;;;;;;;13.08;95.50;99180.50;4991851;28;20078;-79
2023/03/24 03:25:55;;;;;;;5.88;4.30;;;;;;;13.27;95.43;99203.28;4990169;28;20066;-80
2023/03/24 03:28:40;;;;;;;5.82;4.65;;;;;;;13.20;95.70;99178.88;4989622;28;20061;-81
2023/03/24 03:31:13;;;;;;;4.50;4.00;;;;;;;13.22;95.52;99197.88;4982369;28;20078;-81
2023/03/24 03:33:51;;;;;;;5.80;4.40;;;;;;;13.15;95.56;99191.78;4988889;28;20051;-83
2023/03/24 03:36:29;;;;;;;6.00;4.28;;;;;;;13.17;95.60;99184.56;4985076;28;20058;-83
2023/03/24 03:39:08;;;;;;;4.80;4.15;;;;;;;13.26;95.70;99197.22;4978846;28;20054;-82
2023/03/24 03:41:37;;;;;;;4.93;4.13;;;;;;;13.09;95.55;99164.53;4980246;28;20061;-82
2023/03/24 03:44:08;;;;;;;5.53;4.18;;;;;;;13.27;95.47;99184.88;4990210;28;20066;-81
2023/03/24 03:49:40;;;;;;;5.57;4.20;;;;;;;13.23;95.44;99194.22;4989091;28;20478;-81
2023/03/24 03:52:07;;;;;;;5.60;4.10;;;;;;;13.16;95.39;99182.94;4988063;28;20074;-82
2023/03/24 04:11:58;;;;;;;6.30;3.80;;;;;;;13.30;93.67;99179.22;4883085;29;20090;-80
2023/03/24 04:15:02;;;;;;;4.70;4.00;;;;;;;13.38;92.97;99171.09;4791314;29;20556;-83
2023/03/24 04:17:58;;;;;;;4.30;3.47;;;;;;;13.52;91.89;99177.09;4957763;28;20206;-82
2023/03/24 04:20:47;;;;;;;7.07;4.15;;;;;;;13.63;91.66;99205.38;4990031;28;20162;-79
2023/03/24 04:23:44;;;;;;;4.03;3.42;;;;;;;13.60;91.50;99219.72;4989333;28;20150;-81
2023/03/24 04:26:25;;;;;;;6.07;3.80;;;;;;;13.64;91.37;99225.38;4989986;28;20120;-81
2023/03/24 04:29:21;;;;;;;4.60;3.72;;;;;;;13.66;90.98;99225.97;4982704;28;20050;-84
2023/03/24 04:32:10;;;;;;;5.47;3.92;;;;;;;13.70;91.26;99236.88;5025841;23;20062;-81
2023/03/24 04:34:49;;;;;;;4.50;3.80;;;;;;;13.53;92.50;99232.09;5020816;28;20054;-82
2023/03/24 04:37:24;;;;;;;5.68;3.90;;;;;;;13.29;93.77;99225.69;5019407;28;20052;-81
2023/03/24 04:40:21;;;;;;;5.07;3.58;;;;;;;13.27;93.98;99247.94;5011821;28;20054;-82
2023/03/24 04:42:51;;;;;;;4.25;3.53;;;;;;;13.25;93.82;99270.97;5045030;22;20126;-79
2023/03/24 04:45:24;;;;;;;5.85;3.80;;;;;;;13.05;95.79;99275.44;5018182;28;20129;-80
2023/03/24 04:47:55;;;;;;;5.10;3.67;;;;;;;12.75;96.93;99278.53;5017879;28;20068;-79
2023/03/24 04:50:30;;;;;;;5.13;3.05;;;;;;;12.47;97.99;99272.66;5017134;28;20125;-84
2023/03/24 04:52:58;;;;;;;3.63;3.15;;;;;;;12.29;98.30;99283.72;5017950;28;20050;-81
2023/03/24 04:56:01;;;;;;;5.03;3.30;;;;;;;12.32;98.86;99293.81;5018183;28;20042;-81
2023/03/24 04:58:28;;;;;;;4.85;3.67;;;;;;;12.28;99.48;99295.25;5008476;28;20511;-80
2023/03/24 05:00:57;;;;;;;6.93;3.78;;;;;;;12.33;99.44;99313.00;5014304;28;20125;-81
2023/03/24 05:03:25;;;;;;;5.88;3.67;;;;;;;12.31;99.72;99318.44;5018024;28;20038;-77
2023/03/24 05:05:52;;;;;;;5.40;3.97;;;;;;;12.27;99.86;99314.63;5014160;28;20069;-79
2023/03/24 05:08:20;;;;;;;4.93;3.53;;;;;;;12.27;100.00;99312.81;5014624;28;20046;-82
2023/03/24 05:10:47;;;;;;;4.85;3.80;;;;;;;12.21;100.00;99316.22;5014477;28;20512;-79
2023/03/24 05:13:14;;;;;;;5.85;4.07;;;;;;;12.13;100.00;99326.06;5016871;28;20547;-80
2023/03/24 05:15:41;;;;;;;5.47;3.60;;;;;;;12.06;100.00;99333.91;5017005;28;20077;-80
2023/03/24 05:18:09;;;;;;;5.38;3.80;;;;;;;11.98;100.00;99339.31;5018928;28;20049;-79
2023/03/24 05:20:37;;;;;;;5.20;3.97;;;;;;;11.80;100.00;99341.69;5018148;28;20054;-82
2023/03/24 05:23:03;;;;;;;6.45;3.85;;;;;;;11.84;100.00;99350.75;5017616;28;20078;-79
2023/03/24 05:25:30;;;;;;;4.90;3.55;;;;;;;11.78;100.00;99362.03;5019200;28;20053;-80
2023/03/24 05:27:58;;;;;;;5.75;3.85;;;;;;;11.76;100.00;99369.25;5018315;28;20229;-79
2023/03/24 05:30:25;;;;;;;5.80;3.95;;;;;;;11.64;100.00;99369.81;5016285;28;20465;-78
2023/03/24 05:32:52;;;;;;;7.35;4.05;;;;;;;11.65;100.00;99394.19;5010390;28;20058;-81
2023/03/24 05:35:19;;;;;;;6.10;3.60;;;;;;;11.58;100.00;99388.91;5018429;28;20099;-79
2023/03/24 05:37:47;;;;;;;5.00;3.60;;;;;;;11.52;100.00;99387.06;5019333;28;20046;-80
2023/03/24 05:40:15;;;;;;;5.78;3.88;;;;;;;11.54;100.00;99397.34;5019174;28;20054;-78
2023/03/24 05:42:42;;;;;;;5.97;3.65;;;;;;;11.42;99.42;99389.19;5019375;28;20053;-80
2023/03/24 05:45:10;;;;;;;4.15;3.13;;;;;;;11.43;98.27;99382.16;5017167;28;20050;-82
2023/03/24 05:47:37;;;;;;;7.80;3.90;;;;;;;11.43;98.07;99396.06;5016645;28;20085;-80
2023/03/24 05:50:05;;;;;;;7.03;4.03;;;;;;;11.30;98.53;99402.03;5019890;28;20100;-80
2023/03/24 05:52:32;;;;;;;6.78;3.45;;;;;;;11.31;97.53;99397.59;5019208;28;20054;-80
2023/03/24 05:55:24;;;;;;;6.35;3.47;;;;;;;11.35;96.63;99398.00;5018568;28;20073;-81
2023/03/24 05:57:51;;;;;;;7.23;3.63;;;;;;;11.30;95.63;99401.22;5020202;28;20133;-78
2023/03/24 06:00:22;;;;;;;6.72;3.53;;;;;;;11.25;95.62;99414.88;5019806;28;20285;-80
2023/03/24 06:02:49;;;;;;;8.40;3.83;;;;;;;11.17;95.46;99440.41;5020497;28;20084;-81
2023/03/24 06:05:16;;;;;;;9.55;3.70;;;;;;;10.98;95.05;99419.06;5014427;28;20058;-80
2023/03/24 06:07:43;;;;;;;7.22;4.25;;;;;;;11.00;94.80;99431.97;5018545;28;20471;-79
2023/03/24 06:10:13;;;;;;;8.57;3.33;;;;;;;11.05;94.83;99441.88;5018511;28;20098;-80
2023/03/24 06:12:40;;;;;;;9.05;3.67;;;;;;;10.93;95.11;99452.84;5017727;28;20050;-78
2023/03/24 06:15:08;;;;;;;6.85;3.33;;;;;;;10.88;95.44;99464.88;5022429;28;20054;-84
2023/03/24 06:17:36;;;;;;;11.05;3.53;;;;;;;10.88;94.97;99460.44;5022228;28;20081;-80
2023/03/24 06:20:04;;;;;;;5.70;3.05;;;;;;;10.82;94.75;99458.59;5019260;28;20058;-81
2023/03/24 06:22:32;;;;;;;7.88;3.72;;;;;;;10.77;93.58;99458.34;5024694;28;20080;-79
2023/03/24 06:24:59;;;;;;;11.10;4.38;;;;;;;10.64;92.95;99445.13;5025554;28;20079;-77
2023/03/24 06:27:29;;;;;;;12.18;4.25;;;;;;;10.74;92.96;99461.34;5025456;28;20042;-78
2023/03/24 06:29:56;;;;;;;9.07;3.75;;;;;;;10.66;92.48;99461.44;5027951;28;20105;-78
2023/03/24 06:32:23;;;;;;;6.10;3.88;;;;;;;10.58;92.13;99474.63;5027106;28;20049;-79
2023/03/24 06:34:50;;;;;;;12.55;4.35;;;;;;;10.48;92.45;99482.75;5021399;28;20057;-78
2023/03/24 06:37:16;;;;;;;12.20;4.10;;;;;;;10.47;93.06;99482.94;5023055;28;20466;-78
2023/03/24 06:39:43;;;;;;;8.13;4.10;;;;;;;10.45;92.83;99485.75;5026698;28;20046;-80
2023/03/24 06:42:10;;;;;;;7.75;3.90;;;;;;;10.40;93.12;99492.53;5016203;28;20046;-78
2023/03/24 06:44:41;;;;;;;9.70;3.83;;;;;;;10.38;92.89;99504.97;5021335;28;20104;-79
2023/03/24 06:47:08;;;;;;;11.95;4.10;;;;;;;10.44;92.70;99531.19;5022392;28;20054;-79
2023/03/24 06:49:36;;;;;;;17.13;4.38;;;;;;;10.46;92.10;99528.41;5021044;28;20065;-75
2023/03/24 06:52:05;;;;;;;10.00;3.97;;;;;;;10.46;92.13;99544.91;5020070;28;20057;-79
2023/03/24 06:54:32;;;;;;;9.90;4.13;;;;;;;10.39;92.29;99551.06;5016800;28;20050;-80
2023/03/24 06:57:03;;;;;;;11.80;4.15;;;;;;;10.39;92.05;99532.75;5016113;28;20054;-79
2023/03/24 06:59:30;;;;;;;11.10;4.45;;;;;;;10.43;92.13;99560.13;5016558;28;20128;-79
2023/03/24 07:01:58;;;;;;;13.50;4.85;;;;;;;10.37;92.07;99556.47;5011122;28;20088;-81
2023/03/24 07:04:27;;;;;;;12.48;4.65;;;;;;;10.29;92.19;99535.63;5019891;28;20054;-78
2023/03/24 07:06:54;;;;;;;11.60;5.00;;;;;;;10.29;92.36;99512.91;5015600;28;20049;-81
2023/03/24 07:09:21;;;;;;;12.25;4.65;;;;;;;10.37;92.06;99540.78;5015687;28;20058;-80
2023/03/24 07:11:48;;;;;;;10.77;4.75;;;;;;;10.38;91.54;99529.34;5018122;28;20054;-80
2023/03/24 07:14:14;;;;;;;16.23;5.55;;;;;;;10.50;91.63;99546.16;5019448;28;20054;-79
2023/03/24 07:16:43;;;;;;;11.40;5.10;;;;;;;10.51;91.60;99542.56;5016219;28;20586;-82
2023/03/24 07:19:11;;;;;;;13.35;4.90;;;;;;;10.53;91.47;99552.84;5021281;28;20042;-79
2023/03/24 07:21:37;;;;;;;11.48;5.30;;;;;;;10.64;91.66;99558.41;5017450;28;20073;-80
2023/03/24 07:24:04;;;;;;;8.55;4.22;;;;;;;10.57;91.58;99551.47;5020349;28;20077;-83
2023/03/24 07:26:31;;;;;;;10.38;4.40;;;;;;;10.53;91.86;99545.00;5016726;28;20085;-80
2023/03/24 07:29:05;;;;;;;13.68;4.68;;;;;;;10.59;91.48;99559.97;5018006;28;20049;-79
2023/03/24 07:31:46;;;;;;;10.93;4.35;;;;;;;10.55;91.50;99553.47;5020013;28;20049;-80
2023/03/24 07:34:14;;;;;;;10.43;4.03;;;;;;;10.55;91.44;99571.78;5019399;28;20473;-81
2023/03/24 07:36:42;;;;;;;11.00;4.68;;;;;;;10.56;91.04;99565.56;5018372;28;20065;-83
2023/03/24 07:39:09;;;;;;;10.40;4.20;;;;;;;10.64;90.79;99568.06;5017319;28;20073;-80
2023/03/24 07:41:36;;;;;;;11.18;3.60;;;;;;;10.79;90.35;99560.22;5021346;28;20056;-82
2023/03/24 07:44:03;;;;;;;11.23;4.30;;;;;;;11.02;89.84;99570.53;5020795;28;20056;-82
2023/03/24 07:46:30;;;;;;;9.20;4.22;;;;;;;11.18;89.76;99583.41;5020339;28;20105;-81
2023/03/24 07:48:56;;;;;;;11.38;3.80;;;;;;;11.22;89.13;99579.41;5021665;28;20084;-80
2023/03/24 07:51:24;;;;;;;13.45;4.15;;;;;;;11.15;88.90;99573.31;5021138;28;20361;-79
2023/03/24 07:53:51;;;;;;;7.78;3.58;;;;;;;11.16;88.43;99573.13;5021497;28;20045;-80
2023/03/24 07:56:18;;;;;;;20.65;5.28;;;;;;;11.23;88.24;99547.81;5022799;28;20065;-80
2023/03/24 07:58:45;;;;;;;11.95;4.57;;;;;;;11.28;88.11;99573.44;5023332;28;20046;-80
2023/03/24 08:01:11;;;;;;;11.00;3.80;;;;;;;11.24;88.04;99564.34;5022803;28;20096;-81
2023/03/24 08:03:39;;;;;;;12.73;4.60;;;;;;;11.27;88.03;99584.91;5022039;28;20081;-80
2023/03/24 08:06:07;;;;;;;11.15;4.18;;;;;;;11.16;88.05;99586.19;5019081;28;20046;-80
2023/03/24 08:08:36;;;;;;;14.27;4.68;;;;;;;11.28;88.48;99599.63;5017653;28;20053;-80
2023/03/24 08:11:03;;;;;;;12.60;4.78;;;;;;;11.43;88.31;99589.91;5017444;28;20048;-77
2023/03/24 08:13:30;;;;;;;13.65;5.28;;;;;;;11.74;87.78;99594.03;5017017;28;20132;-79
2023/03/24 08:15:56;;;;;;;14.80;5.13;;;;;;;11.88;87.14;99593.94;5019701;28;20461;-79
2023/03/24 08:18:24;;;;;;;12.77;5.32;;;;;;;12.10;85.16;99584.25;5018768;28;20137;-78
2023/03/24 08:20:55;;;;;;;7.88;4.25;;;;;;;12.57;84.07;99566.97;5017716;28;20077;-79
2023/03/24 08:23:22;;;;;;;12.05;4.68;;;;;;;13.52;81.39;99571.31;5017478;28;20061;-79
2023/03/24 08:25:51;;;;;;;13.20;5.00;;;;;;;14.59;78.35;99569.19;5017705;28;20041;-81
2023/03/24 08:28:17;;;;;;;11.43;4.32;;;;;;;15.27;75.17;99544.94;5018554;28;20049;-80
2023/03/24 08:30:51;;;;;;;14.98;5.93;;;;;;;15.15;74.35;99557.97;5022882;28;20046;-79
2023/03/24 08:33:18;;;;;;;12.05;5.63;;;;;;;15.26;73.92;99559.94;5018749;28;20058;-79
2023/03/24 08:35:45;;;;;;;12.77;5.05;;;;;;;14.33;74.28;99542.91;5020468;28;20069;-80
2023/03/24 08:38:13;;;;;;;14.38;5.28;;;;;;;13.66;75.84;99551.91;5020497;28;20158;-78
2023/03/24 08:40:41;;;;;;;13.48;5.30;;;;;;;14.13;76.06;99577.19;5022039;28;20157;-80
2023/03/24 08:43:14;;;;;;;16.60;5.30;;;;;;;14.78;74.17;99588.56;5012147;28;20053;-81
2023/03/24 08:45:41;;;;;;;18.42;6.10;;;;;;;14.93;73.24;99570.69;5017334;28;20049;-80
2023/03/24 08:48:09;;;;;;;14.35;5.40;;;;;;;14.82;73.75;99573.97;5017213;28;20092;-79
2023/03/24 08:50:38;;;;;;;15.32;5.95;;;;;;;13.84;76.07;99583.66;5020407;28;20106;-81
2023/03/24 08:53:05;;;;;;;12.82;5.32;;;;;;;14.19;76.52;99584.22;5020837;28;20104;-80
2023/03/24 08:55:32;;;;;;;15.18;5.25;;;;;;;13.66;76.59;99575.56;5018767;28;20070;-78
2023/03/24 08:57:58;;;;;;;15.50;5.40;;;;;;;13.14;77.27;99594.66;5025708;28;20117;-80
2023/03/24 09:00:27;;;;;;;14.00;5.30;;;;;;;12.69;78.64;99589.03;5015145;28;20050;-80
2023/03/24 09:02:55;;;;;;;11.48;5.05;;;;;;;12.96;78.31;99597.81;5019879;28;20049;-79
2023/03/24 09:05:24;;;;;;;11.85;4.50;;;;;;;12.95;78.22;99591.75;5022317;28;20061;-79
2023/03/24 09:07:51;;;;;;;13.02;4.78;;;;;;;13.25;76.99;99600.16;5022942;28;20057;-80
2023/03/24 09:10:18;;;;;;;14.90;4.80;;;;;;;13.00;76.43;99588.53;5015565;28;20050;-78
2023/03/24 09:12:46;;;;;;;12.70;4.05;;;;;;;12.79;76.68;99593.91;5008456;28;20101;-78
2023/03/24 09:15:13;;;;;;;12.23;4.15;;;;;;;12.52;77.16;99596.41;5011973;28;20053;-79
2023/03/24 09:17:42;;;;;;;14.52;4.25;;;;;;;12.69;77.28;99610.03;5014938;28;20058;-79
2023/03/24 09:20:11;;;;;;;11.35;4.07;;;;;;;12.68;76.00;99595.28;5022344;28;20128;-80
2023/03/24 09:22:38;;;;;;;14.88;4.32;;;;;;;13.25;75.79;99602.78;5022303;28;20081;-80
2023/03/24 09:25:06;;;;;;;9.27;3.80;;;;;;;13.59;74.57;99603.66;5016022;28;20050;-80
2023/03/24 09:27:33;;;;;;;10.57;3.35;;;;;;;13.76;74.35;99601.44;5018191;28;20078;-80
2023/03/24 09:29:59;;;;;;;11.60;3.78;;;;;;;13.66;74.82;99601.88;5021764;28;20084;-80
2023/03/24 09:32:26;;;;;;;10.27;3.80;;;;;;;13.67;74.54;99595.59;5020184;28;20074;-80
2023/03/24 09:34:54;;;;;;;12.38;4.35;;;;;;;13.71;75.16;99599.41;5021775;28;20062;-80
2023/03/24 09:37:21;;;;;;;18.13;4.82;;;;;;;13.64;76.03;99608.34;5024149;28;20058;-80
2023/03/24 09:39:48;;;;;;;18.38;4.75;;;;;;;13.63;75.41;99610.16;5021159;28;20145;-80
2023/03/24 09:42:21;;;;;;;29.80;5.68;;;;;;;13.32;75.97;99615.94;5021886;28;20041;-80
2023/03/24 09:44:53;;;;;;;18.15;4.80;;;;;;;13.18;76.87;99622.19;5025839;28;20049;-79
2023/03/24 09:47:28;;;;;;;13.20;5.10;;;;;;;13.23;77.64;99625.81;5027958;28;20081;-81
2023/03/24 09:50:00;;;;;;;20.42;5.32;;;;;;;13.35;78.58;99633.94;5028022;28;20073;-80
2023/03/24 09:52:32;;;;;;;16.30;4.60;;;;;;;13.39;78.30;99634.34;5034086;28;20077;-81
2023/03/24 09:55:01;;;;;;;23.77;4.90;;;;;;;13.43;76.44;99635.56;5031524;28;20326;-80
2023/03/24 09:57:35;;;;;;;11.55;4.45;;;;;;;13.79;75.41;99630.78;5027977;28;20129;-79
2023/03/24 10:00:02;;;;;;;15.02;4.40;;;;;;;13.60;73.95;99616.63;5029399;28;20077;-79
2023/03/24 10:02:29;;;;;;;12.85;4.40;;;;;;;13.34;74.65;99611.28;5024714;28;20057;-81
2023/03/24 10:04:58;;;;;;;7.30;3.65;;;;;;;13.26;74.58;99621.97;5019910;28;20054;-79
2023/03/24 10:07:32;;;;;;;13.43;4.25;;;;;;;13.27;75.22;99631.47;5027007;28;20124;-80
2023/03/24 10:10:00;;;;;;;16.63;8.60;;;;;;;13.12;75.79;99628.19;5028513;28;20121;-80
2023/03/24 10:12:35;;;;;;;17.85;10.98;;;;;;;13.14;76.42;99628.81;5028436;28;20077;-80
2023/03/24 10:15:13;;;;;;;12.40;7.05;;;;;;;13.34;75.38;99634.94;5023113;28;20080;-80
2023/03/24 10:17:47;;;;;;;14.32;5.40;;;;;;;13.61;74.83;99641.09;5021774;28;20499;-79
2023/03/24 10:20:29;;;;;;;15.52;5.35;;;;;;;13.41;75.11;99648.09;5027072;28;20072;-78
2023/03/24 10:23:01;;;;;;;11.07;5.00;;;;;;;13.13;75.09;99645.56;5007615;28;20425;-82
2023/03/24 10:25:45;;;;;;;16.42;9.00;;;;;;;13.02;75.38;99646.13;5020486;28;20507;-80
2023/03/24 10:28:18;;;;;;;25.17;12.10;;;;;;;13.02;75.31;99648.75;5018923;28;20141;-80
2023/03/24 10:30:47;;;;;;;14.07;6.80;;;;;;;12.98;75.10;99650.13;5029178;28;20101;-79
2023/03/24 10:33:14;;;;;;;9.68;4.45;;;;;;;13.00;74.29;99640.25;5023895;28;20088;-80
2023/03/24 10:35:47;;;;;;;15.65;5.47;;;;;;;13.31;73.74;99645.84;5025198;28;20427;-80
2023/03/24 10:38:17;;;;;;;17.63;4.35;;;;;;;13.40;72.96;99649.09;5022336;28;20252;-80
2023/03/24 10:40:45;;;;;;;10.20;5.10;;;;;;;13.46;72.49;99646.50;5028419;28;20408;-80
2023/03/24 10:43:12;;;;;;;11.02;4.53;;;;;;;13.39;73.13;99640.41;5014515;28;20128;-79
2023/03/24 10:45:42;;;;;;;11.65;5.40;;;;;;;13.63;73.45;99640.88;5022776;28;20128;-80
2023/03/24 10:48:11;;;;;;;15.68;3.80;;;;;;;13.60;73.16;99642.91;5023025;28;20054;-80
2023/03/24 10:50:44;;;;;;;12.63;3.70;;;;;;;13.43;72.52;99631.13;5023244;28;20118;-80
2023/03/24 10:53:18;;;;;;;11.43;4.53;;;;;;;13.45;72.83;99633.56;5022526;28;20054;-83
2023/03/24 10:55:46;;;;;;;13.23;4.22;;;;;;;13.43;72.09;99630.31;5022869;28;20089;-80
2023/03/24 10:58:20;;;;;;;10.23;3.90;;;;;;;13.54;72.18;99637.63;5023082;28;20133;-80
2023/03/24 11:00:47;;;;;;;11.80;4.53;;;;;;;13.52;72.39;99650.97;5022314;28;20149;-82
2023/03/24 11:03:17;;;;;;;12.38;4.03;;;;;;;13.69;72.22;99645.34;5014255;28;20050;-79
2023/03/24 11:05:45;;;;;;;14.57;3.58;;;;;;;13.75;72.26;99647.16;5031237;28;20045;-80
2023/03/24 11:08:24;;;;;;;10.50;4.30;;;;;;;14.17;71.12;99638.09;5031272;28;20072;-80
2023/03/24 11:10:50;;;;;;;7.97;3.45;;;;;;;14.24;71.00;99639.69;5031759;28;20050;-79
2023/03/24 11:13:20;;;;;;;20.17;4.43;;;;;;;13.99;71.21;99619.47;5026668;28;20516;-79
2023/03/24 11:15:55;;;;;;;8.57;3.65;;;;;;;13.83;71.28;99637.25;5024939;28;20057;-80
2023/03/24 11:18:23;;;;;;;11.50;3.90;;;;;;;13.97;71.72;99632.81;5025698;28;20053;-80
2023/03/24 11:20:55;;;;;;;12.55;3.80;;;;;;;13.92;72.55;99651.03;5016747;28;20205;-81
2023/03/24 11:23:26;;;;;;;;;;;;;;;13.75;72.96;99640.06;5018141;28;20065;-80
2023/03/24 11:26:05;;;;;;;11.35;3.70;;;;;;;13.71;73.23;99656.44;5016730;28;19977;-80
2023/03/24 11:28:37;;;;;;;11.60;3.70;;;;;;;13.64;73.51;99658.28;5024988;28;20781;-80
2023/03/24 11:31:07;;;;;;;10.10;3.85;;;;;;;13.63;73.55;99661.91;5024416;28;20080;-80
2023/03/24 11:33:42;;;;;;;19.58;4.03;;;;;;;13.56;73.46;99660.06;5024589;28;20053;-81
2023/03/24 11:36:53;;;;;;;12.50;4.10;;;;;;;13.55;73.86;99661.09;5025214;28;20073;-80
2023/03/24 11:39:22;;;;;;;12.75;4.22;;;;;;;13.88;73.42;99665.56;5023842;28;20053;-79
2023/03/24 11:42:15;;;;;;;19.55;4.80;;;;;;;14.39;72.94;99675.50;5013672;28;20090;-79
2023/03/24 11:44:47;;;;;;;16.17;3.78;;;;;;;14.73;70.69;99662.09;5014925;28;20060;-79
2023/03/24 11:47:22;;;;;;;13.40;3.95;;;;;;;15.06;69.83;99651.47;5021034;28;20113;-78
2023/03/24 11:49:56;;;;;;;12.30;3.83;;;;;;;15.14;68.50;99645.13;5012762;28;20054;-80
2023/03/24 11:52:30;;;;;;;10.70;3.40;;;;;;;15.05;68.18;99651.69;5020982;28;20084;-80
2023/03/24 11:54:56;;;;;;;9.32;3.50;;;;;;;15.09;68.75;99648.44;5021755;28;20119;-80
2023/03/24 11:57:40;;;;;;;11.45;3.60;;;;;;;15.17;69.30;99653.44;5022176;28;20121;-80
2023/03/24 12:00:14;;;;;;;7.95;3.40;;;;;;;15.36;67.06;99633.28;5016563;28;20118;-80
2023/03/24 12:02:53;;;;;;;9.25;3.60;;;;;;;15.77;65.71;99634.69;5022215;28;20558;-80
2023/03/24 12:05:31;;;;;;;8.38;3.22;;;;;;;16.10;63.84;99606.19;5022523;28;20141;-81
2023/03/24 12:08:12;;;;;;;10.38;3.38;;;;;;;16.03;62.96;99608.13;5014846;28;20132;-80
2023/03/24 12:10:53;;;;;;;8.63;2.90;;;;;;;15.83;62.40;99591.63;5021439;28;20133;-79
2023/03/24 12:13:32;;;;;;;13.52;3.47;;;;;;;16.09;62.97;99616.97;5019487;28;20127;-80
2023/03/24 12:16:11;;;;;;;11.43;4.22;;;;;;;16.23;61.94;99586.81;5021100;28;20081;-80
2023/03/24 12:18:49;;;;;;;6.07;2.45;;;;;;;16.08;61.19;99605.59;5022363;28;20050;-81
2023/03/24 12:21:25;;;;;;;8.68;2.95;;;;;;;16.07;61.67;99608.50;5017769;28;20046;-78
2023/03/24 12:23:58;;;;;;;9.63;3.03;;;;;;;16.02;61.56;99611.78;5019086;28;20053;-81